createdAt,value
2023-08-01T00:04:12.354Z,2.20
2023-08-01T00:09:20.811Z,2.50
2023-08-01T00:14:29.231Z,2.60
2023-08-01T00:19:37.447Z,2.70
2023-08-01T00:24:46.325Z,2.40
2023-08-01T00:29:55.149Z,2.70
2023-08-01T00:35:03.354Z,3.30
2023-08-01T00:40:14.008Z,2.40
2023-08-01T00:45:23.353Z,2.40
2023-08-01T00:50:32.012Z,2.50
2023-08-01T00:55:41.427Z,2.60
2023-08-01T01:00:50.088Z,2.60
2023-08-01T01:06:04.909Z,2.40
2023-08-01T01:11:13.180Z,2.60
2023-08-01T01:16:21.421Z,2.70
2023-08-01T01:21:29.199Z,2.50
2023-08-01T01:26:39.349Z,2.80
2023-08-01T01:31:47.359Z,2.80
2023-08-01T01:36:56.672Z,2.90
2023-08-01T01:42:04.260Z,2.50
2023-08-01T01:47:12.106Z,2.80
2023-08-01T01:52:19.812Z,2.70
2023-08-01T01:57:27.904Z,2.70
2023-08-01T02:02:36.577Z,3.30
2023-08-01T02:07:45.306Z,2.50
2023-08-01T02:12:54.146Z,2.60
2023-08-01T02:18:02.762Z,2.80
2023-08-01T02:23:11.212Z,3.20
2023-08-01T02:28:19.504Z,3.40
2023-08-01T02:33:28.081Z,3.40
2023-08-01T02:38:37.236Z,3.60
2023-08-01T02:43:46.252Z,3.30
2023-08-01T02:48:54.943Z,3.50
2023-08-01T02:54:03.493Z,3.30
2023-08-01T02:59:12.164Z,3.40
2023-08-01T03:04:22.173Z,3.40
2023-08-01T03:09:36.783Z,3.70
2023-08-01T03:14:46.262Z,3.40
2023-08-01T03:19:54.876Z,3.60
2023-08-01T03:25:09.117Z,3.40
2023-08-01T03:30:17.959Z,3.60
2023-08-01T03:35:26.721Z,3.70
2023-08-01T03:40:35.569Z,4.10
2023-08-01T03:45:44.932Z,3.70
2023-08-01T03:50:53.587Z,3.90
2023-08-01T03:56:02.118Z,3.70
2023-08-01T04:01:10.862Z,4.10
2023-08-01T04:06:19.739Z,4.00
2023-08-01T04:11:27.463Z,4.10
2023-08-01T04:16:36.172Z,4.30
2023-08-01T04:21:43.614Z,4.20
2023-08-01T04:26:51.056Z,3.70
2023-08-01T04:31:58.545Z,3.80
2023-08-01T04:37:07.750Z,4.20
2023-08-01T04:42:16.316Z,3.50
2023-08-01T04:47:25.213Z,4.00
2023-08-01T04:52:34.058Z,4.20
2023-08-01T04:57:42.679Z,4.00
2023-08-01T05:02:51.852Z,4.00
2023-08-01T05:08:00.926Z,4.40
2023-08-01T05:13:09.317Z,4.00
2023-08-01T05:18:18.908Z,4.10
2023-08-01T05:23:27.482Z,3.70
2023-08-01T05:28:36.395Z,3.70
2023-08-01T05:33:44.861Z,3.70
2023-08-01T05:38:53.779Z,3.60
2023-08-01T05:44:03.127Z,4.00
2023-08-01T05:49:11.830Z,3.80
2023-08-01T05:54:20.258Z,4.20
2023-08-01T05:59:28.471Z,3.90
2023-08-01T06:04:37.368Z,3.50
2023-08-01T06:09:46.168Z,4.30
2023-08-01T06:14:53.876Z,3.80
2023-08-01T06:20:01.297Z,4.00
2023-08-01T06:25:09.894Z,3.60
2023-08-01T06:30:18.291Z,3.80
2023-08-01T06:35:26.808Z,4.00
2023-08-01T06:40:35.599Z,3.10
2023-08-01T06:45:44.288Z,4.10
2023-08-01T06:50:52.701Z,3.70
2023-08-01T06:56:01.154Z,3.60
2023-08-01T07:01:09.679Z,4.00
2023-08-01T07:06:18.768Z,3.70
2023-08-01T07:11:26.700Z,4.30
2023-08-01T07:16:34.215Z,4.00
2023-08-01T07:21:42.522Z,3.80
2023-08-01T07:26:51.163Z,3.80
2023-08-01T07:31:59.487Z,3.80
2023-08-01T07:37:07.486Z,3.60
2023-08-01T07:42:15.576Z,3.90
2023-08-01T07:47:25.424Z,4.20
2023-08-01T07:52:33.875Z,3.80
2023-08-01T07:57:41.335Z,3.50
2023-08-01T08:02:52.967Z,4.30
2023-08-01T08:13:07.759Z,3.90
2023-08-01T08:18:16.245Z,6.70
2023-08-01T08:23:25.569Z,3.90
2023-08-01T08:28:37.316Z,3.50
2023-08-01T08:33:45.986Z,3.70
2023-08-01T08:38:54.231Z,3.40
2023-08-01T08:44:04.234Z,3.30
2023-08-01T08:49:13.365Z,3.20
2023-08-01T08:54:22.753Z,3.80
2023-08-01T08:59:32.424Z,3.40
2023-08-01T09:04:40.393Z,3.40
2023-08-01T09:09:49.537Z,3.10
2023-08-01T09:15:01.914Z,3.20
2023-08-01T09:20:14.364Z,2.80
2023-08-01T09:25:22.897Z,3.30
2023-08-01T09:30:33.244Z,3.50
2023-08-01T09:35:45.950Z,2.70
2023-08-01T09:40:55.193Z,2.80
2023-08-01T09:46:02.735Z,3.10
2023-08-01T09:51:13.748Z,2.80
2023-08-01T09:56:23.897Z,3.20
2023-08-01T10:01:34.676Z,2.90
2023-08-01T10:06:50.612Z,3.60
2023-08-01T10:11:59.793Z,2.90
2023-08-01T10:17:11.531Z,3.00
2023-08-01T10:22:20.565Z,3.10
2023-08-01T10:27:29.055Z,3.40
2023-08-01T10:32:39.249Z,2.90
2023-08-01T10:37:48.902Z,3.10
2023-08-01T10:42:56.938Z,3.00
2023-08-01T10:48:15.413Z,3.00
2023-08-01T10:53:23.126Z,2.90
2023-08-01T10:58:33.271Z,3.40
2023-08-01T11:03:43.719Z,3.20
2023-08-01T11:08:51.427Z,3.80
2023-08-01T11:13:59.291Z,3.90
2023-08-01T11:19:07.044Z,3.60
2023-08-01T11:24:15.136Z,3.20
2023-08-01T11:29:25.846Z,4.40
2023-08-01T11:34:48.013Z,3.90
2023-08-01T11:39:59.733Z,3.60
2023-08-01T11:45:19.045Z,3.70
2023-08-01T11:50:30.740Z,3.30
2023-08-01T11:55:40.639Z,3.80
2023-08-01T12:00:50.174Z,3.70
2023-08-01T12:06:09.365Z,4.00
2023-08-01T12:11:29.507Z,3.60
2023-08-01T12:16:38.649Z,3.60
2023-08-01T12:21:47.202Z,4.20
2023-08-01T12:26:55.712Z,4.70
2023-08-01T12:32:04.613Z,4.10
2023-08-01T12:37:14.269Z,3.90
2023-08-01T12:42:22.368Z,3.90
2023-08-01T12:47:29.921Z,4.10
2023-08-01T12:52:38.324Z,4.40
2023-08-01T12:57:47.600Z,4.50
2023-08-01T13:02:55.977Z,5.10
2023-08-01T13:08:04.417Z,4.60
2023-08-01T13:13:11.706Z,4.80
2023-08-01T13:18:20.445Z,5.40
2023-08-01T13:23:29.786Z,5.70
2023-08-01T13:28:38.132Z,4.80
2023-08-01T13:33:47.488Z,4.80
2023-08-01T13:38:56.637Z,5.00
2023-08-01T13:44:04.465Z,5.20
2023-08-01T13:49:14.948Z,4.70
2023-08-01T13:54:22.851Z,5.40
2023-08-01T13:59:31.232Z,5.50
2023-08-01T14:04:39.294Z,5.60
2023-08-01T14:09:47.568Z,5.50
2023-08-01T14:14:56.691Z,5.50
2023-08-01T14:20:07.411Z,6.00
2023-08-01T14:25:15.347Z,5.00
2023-08-01T14:30:23.163Z,5.40
2023-08-01T14:35:30.743Z,5.80
2023-08-01T14:40:43.350Z,5.60
2023-08-01T14:45:53.981Z,5.50
2023-08-01T14:51:02.493Z,5.60
2023-08-01T14:56:13.097Z,5.50
2023-08-01T15:01:21.461Z,4.80
2023-08-01T15:06:29.132Z,4.90
2023-08-01T15:11:37.840Z,5.40
2023-08-01T15:16:46.512Z,5.30
2023-08-01T15:21:56.341Z,5.50
2023-08-01T15:27:05.009Z,5.70
2023-08-01T15:32:14.384Z,5.30
2023-08-01T15:37:22.932Z,5.80
2023-08-01T15:42:32.555Z,5.30
2023-08-01T15:47:40.871Z,5.10
2023-08-01T15:52:49.473Z,4.90
2023-08-01T15:57:57.762Z,4.60
2023-08-01T16:03:07.648Z,4.50
2023-08-01T16:08:16.489Z,4.40
2023-08-01T16:13:25.836Z,4.50
2023-08-01T16:18:34.321Z,4.40
2023-08-01T16:23:42.898Z,4.60
2023-08-01T16:28:51.401Z,4.40
2023-08-01T16:34:01.169Z,4.40
2023-08-01T16:39:09.760Z,4.40
2023-08-01T16:44:18.649Z,4.50
2023-08-01T16:49:27.479Z,4.30
2023-08-01T16:54:36.855Z,4.90
2023-08-01T16:59:45.632Z,4.40
2023-08-01T17:04:54.221Z,4.10
2023-08-01T17:10:06.089Z,4.90
2023-08-01T17:15:15.112Z,5.00
2023-08-01T17:20:25.509Z,4.50
2023-08-01T17:25:33.787Z,5.00
2023-08-01T17:30:43.801Z,5.30
2023-08-01T17:35:53.171Z,5.40
2023-08-01T17:41:07.733Z,4.90
2023-08-01T17:46:15.427Z,5.40
2023-08-01T17:51:23.523Z,4.90
2023-08-01T17:56:31.400Z,4.90
2023-08-01T18:01:39.422Z,5.10
2023-08-01T18:06:47.779Z,5.00
2023-08-01T18:11:55.686Z,4.80
2023-08-01T18:17:03.477Z,4.30
2023-08-01T18:22:11.580Z,4.70
2023-08-01T18:27:19.751Z,4.90
2023-08-01T18:32:27.708Z,5.20
2023-08-01T18:37:37.465Z,4.90
2023-08-01T18:42:45.815Z,4.80
2023-08-01T18:47:55.260Z,4.80
2023-08-01T18:53:02.984Z,4.10
2023-08-01T18:58:11.589Z,3.60
2023-08-01T19:03:20.418Z,3.50
2023-08-01T19:08:30.594Z,3.70
2023-08-01T19:13:39.202Z,3.30
2023-08-01T19:18:47.470Z,3.20
2023-08-01T19:23:56.903Z,3.30
2023-08-01T19:29:06.087Z,3.50
2023-08-01T19:34:14.981Z,3.00
2023-08-01T19:39:23.596Z,3.70
2023-08-01T19:44:34.153Z,4.20
2023-08-01T19:49:43.552Z,3.80
2023-08-01T19:54:52.973Z,4.50
2023-08-01T20:00:00.604Z,3.80
2023-08-01T20:05:08.733Z,4.90
2023-08-01T20:10:16.880Z,5.10
2023-08-01T20:15:24.301Z,4.60
2023-08-01T20:20:32.858Z,5.00
2023-08-01T20:25:41.998Z,4.80
2023-08-01T20:30:50.495Z,4.80
2023-08-01T20:36:07.544Z,4.90
2023-08-01T20:41:19.204Z,4.80
2023-08-01T20:46:27.465Z,4.40
2023-08-01T20:51:35.592Z,4.20
2023-08-01T20:56:43.850Z,5.00
2023-08-01T21:01:52.879Z,4.90
2023-08-01T21:07:01.468Z,4.40
2023-08-01T21:12:12.113Z,4.50
2023-08-01T21:17:21.254Z,4.50
2023-08-01T21:22:30.604Z,5.00
2023-08-01T21:27:39.811Z,4.80
2023-08-01T21:32:48.888Z,4.40
2023-08-01T21:37:57.392Z,4.70
2023-08-01T21:43:06.072Z,4.00
2023-08-01T21:48:14.704Z,3.30
2023-08-01T21:53:23.115Z,3.90
2023-08-01T21:58:32.058Z,3.20
2023-08-01T22:03:40.667Z,3.40
2023-08-01T22:08:49.069Z,2.90
2023-08-01T22:13:57.956Z,3.10
2023-08-01T22:19:06.327Z,3.20
2023-08-01T22:24:15.162Z,3.10
2023-08-01T22:29:24.028Z,2.80
2023-08-01T22:34:31.709Z,3.00
2023-08-01T22:39:39.300Z,2.50
2023-08-01T22:44:46.721Z,2.40
2023-08-01T22:50:04.796Z,3.10
2023-08-01T22:55:15.432Z,2.60
2023-08-01T23:00:23.177Z,3.20
2023-08-01T23:05:32.392Z,3.20
2023-08-01T23:10:44.752Z,3.70
2023-08-01T23:15:54.235Z,4.20
2023-08-01T23:21:03.662Z,4.40
2023-08-01T23:26:13.099Z,4.90
2023-08-01T23:31:21.757Z,4.90
2023-08-01T23:36:30.408Z,5.30
2023-08-01T23:41:39.067Z,5.80
2023-08-01T23:46:46.458Z,5.40
2023-08-01T23:51:54.108Z,5.80
2023-08-01T23:57:02.564Z,5.60
